createdAt,value
2022-09-25T00:01:32.651Z,1.20
2022-09-25T00:04:00.079Z,1.30
2022-09-25T00:06:28.784Z,1.20
2022-09-25T00:08:56.798Z,1.08
2022-09-25T00:11:29.696Z,1.20
2022-09-25T00:13:57.477Z,1.10
2022-09-25T00:16:28.094Z,1.10
2022-09-25T00:19:14.972Z,1.25
2022-09-25T00:21:42.527Z,0.98
2022-09-25T00:24:10.798Z,1.55
2022-09-25T00:26:39.994Z,1.30
2022-09-25T00:29:07.796Z,1.20
2022-09-25T00:31:35.640Z,1.40
2022-09-25T00:34:04.995Z,0.80
2022-09-25T00:36:33.152Z,1.00
2022-09-25T00:39:00.902Z,0.93
2022-09-25T00:41:31.672Z,1.20
2022-09-25T00:43:59.770Z,1.23
2022-09-25T00:46:27.084Z,1.20
2022-09-25T00:48:56.943Z,0.98
2022-09-25T00:51:29.116Z,1.25
2022-09-25T00:53:58.818Z,0.98
2022-09-25T00:56:26.784Z,1.10
2022-09-25T00:58:54.172Z,1.50
2022-09-25T01:01:22.666Z,1.45
2022-09-25T01:03:50.059Z,1.10
2022-09-25T01:06:18.197Z,0.90
2022-09-25T01:08:46.440Z,1.25
2022-09-25T01:11:13.672Z,1.15
2022-09-25T01:13:41.856Z,1.23
2022-09-25T01:16:35.406Z,1.00
2022-09-25T01:19:11.614Z,1.42
2022-09-25T01:21:47.472Z,0.90
2022-09-25T01:24:26.952Z,0.80
2022-09-25T01:27:03.144Z,0.82
2022-09-25T01:29:48.555Z,1.08
2022-09-25T01:32:21.981Z,0.88
2022-09-25T01:34:52.957Z,1.00
2022-09-25T01:37:30.163Z,1.00
2022-09-25T01:40:08.535Z,1.13
2022-09-25T01:42:54.716Z,0.98
2022-09-25T01:45:29.412Z,1.20
2022-09-25T01:47:58.042Z,1.20
2022-09-25T01:51:04.446Z,1.10
2022-09-25T01:53:37.695Z,1.00
2022-09-25T01:56:25.314Z,1.20
2022-09-25T01:58:58.165Z,1.23
2022-09-25T02:01:29.813Z,1.75
2022-09-25T02:04:03.744Z,1.45
2022-09-25T02:06:32.925Z,1.27
2022-09-25T02:09:07.141Z,1.10
2022-09-25T02:11:39.871Z,0.95
2022-09-25T02:14:16.520Z,1.10
2022-09-25T02:16:44.218Z,1.10
2022-09-25T02:19:31.190Z,1.20
2022-09-25T02:22:17.419Z,0.85
2022-09-25T02:24:45.335Z,1.48
2022-09-25T02:27:12.565Z,0.90
2022-09-25T02:29:39.911Z,1.20
2022-09-25T02:32:10.107Z,0.88
2022-09-25T02:34:37.503Z,1.00
2022-09-25T02:37:10.581Z,1.00
2022-09-25T02:39:38.075Z,1.10
2022-09-25T02:42:14.874Z,1.02
2022-09-25T02:44:48.098Z,1.10
2022-09-25T02:47:34.634Z,1.40
2022-09-25T02:50:08.014Z,1.10
2022-09-25T02:52:48.713Z,1.10
2022-09-25T02:55:27.726Z,1.40
2022-09-25T02:58:09.178Z,1.27
2022-09-25T03:00:38.677Z,0.88
2022-09-25T03:03:07.743Z,1.20
2022-09-25T03:05:38.019Z,1.10
2022-09-25T03:08:24.653Z,1.25
2022-09-25T03:10:51.949Z,1.48
2022-09-25T03:13:20.888Z,1.30
2022-09-25T03:15:51.923Z,1.48
2022-09-25T03:18:19.837Z,1.10
2022-09-25T03:20:47.095Z,1.63
2022-09-25T03:23:14.361Z,1.30
2022-09-25T03:25:45.976Z,1.40
2022-09-25T03:28:18.225Z,1.10
2022-09-25T03:30:45.740Z,1.20
2022-09-25T03:33:13.752Z,1.20
2022-09-25T03:35:41.303Z,1.25
2022-09-25T03:38:10.571Z,1.10
2022-09-25T03:40:37.884Z,1.00
2022-09-25T03:45:31.865Z,1.02
2022-09-25T03:47:59.189Z,1.00
2022-09-25T03:50:27.756Z,1.17
2022-09-25T03:52:55.140Z,1.15
2022-09-25T03:55:22.601Z,1.27
2022-09-25T03:57:50.442Z,1.65
2022-09-25T04:00:18.070Z,1.33
2022-09-25T04:02:45.580Z,1.40
2022-09-25T04:05:13.119Z,1.00
2022-09-25T04:07:40.923Z,1.27
2022-09-25T04:10:08.457Z,1.33
2022-09-25T04:12:36.195Z,1.40
2022-09-25T04:15:03.512Z,1.40
2022-09-25T04:17:30.814Z,1.30
2022-09-25T04:19:58.302Z,1.40
2022-09-25T04:22:25.876Z,1.20
2022-09-25T04:24:54.866Z,1.50
2022-09-25T04:27:23.416Z,1.33
2022-09-25T04:29:51.049Z,1.30
2022-09-25T04:32:36.956Z,1.50
2022-09-25T04:35:04.462Z,1.42
2022-09-25T04:37:31.673Z,1.30
2022-09-25T04:39:59.107Z,1.55
2022-09-25T04:42:26.539Z,1.52
2022-09-25T04:44:57.180Z,1.13
2022-09-25T04:47:25.746Z,1.30
2022-09-25T04:49:53.447Z,1.58
2022-09-25T04:52:21.386Z,1.48
2022-09-25T04:54:48.941Z,1.35
2022-09-25T04:57:32.722Z,1.48
2022-09-25T05:00:05.449Z,1.42
2022-09-25T05:02:33.061Z,1.40
2022-09-25T05:05:00.473Z,1.48
2022-09-25T05:07:27.811Z,1.30
2022-09-25T05:09:55.312Z,1.30
2022-09-25T05:12:22.700Z,1.25
2022-09-25T05:14:49.983Z,1.40
2022-09-25T05:17:17.346Z,1.30
2022-09-25T05:19:44.756Z,1.13
2022-09-25T05:22:12.057Z,1.40
2022-09-25T05:24:39.519Z,1.20
2022-09-25T05:27:07.082Z,1.33
2022-09-25T05:29:34.571Z,1.20
2022-09-25T05:32:02.190Z,1.25
2022-09-25T05:34:29.499Z,1.13
2022-09-25T05:36:56.734Z,1.50
2022-09-25T05:39:24.219Z,1.33
2022-09-25T05:41:51.591Z,1.13
2022-09-25T05:44:18.877Z,1.52
2022-09-25T05:46:46.235Z,1.50
2022-09-25T05:49:13.532Z,2.00
2022-09-25T05:51:40.788Z,1.33
2022-09-25T05:54:08.363Z,1.55
2022-09-25T05:56:35.624Z,1.60
2022-09-25T05:59:03.100Z,1.45
2022-09-25T06:01:30.545Z,1.40
2022-09-25T06:03:57.856Z,1.67
2022-09-25T06:06:27.570Z,1.75
2022-09-25T06:08:55.521Z,1.77
2022-09-25T06:11:22.794Z,1.40
2022-09-25T06:13:54.227Z,1.40
2022-09-25T06:16:21.953Z,1.10
2022-09-25T06:18:49.350Z,1.10
2022-09-25T06:21:16.707Z,1.90
2022-09-25T06:23:48.736Z,1.08
2022-09-25T06:26:16.282Z,0.80
2022-09-25T06:28:43.572Z,1.00
2022-09-25T06:31:11.048Z,0.90
2022-09-25T06:33:38.377Z,1.10
2022-09-25T06:36:06.258Z,1.42
2022-09-25T06:38:34.571Z,1.25
2022-09-25T06:41:02.069Z,1.15
2022-09-25T06:43:29.394Z,1.10
2022-09-25T06:45:59.762Z,1.00
2022-09-25T06:48:27.087Z,1.00
2022-09-25T06:50:56.935Z,1.00
2022-09-25T06:53:25.314Z,1.30
2022-09-25T06:55:54.116Z,1.50
2022-09-25T06:58:22.702Z,1.40
2022-09-25T07:00:54.259Z,1.02
2022-09-25T07:03:40.578Z,1.20
2022-09-25T07:06:09.011Z,1.38
2022-09-25T07:08:36.231Z,1.00
2022-09-25T07:11:04.142Z,1.30
2022-09-25T07:13:34.077Z,1.55
2022-09-25T07:16:02.656Z,1.40
2022-09-25T07:18:30.251Z,1.40
2022-09-25T07:21:01.725Z,1.70
2022-09-25T07:23:31.242Z,1.70
2022-09-25T07:26:04.820Z,1.65
2022-09-25T07:28:32.305Z,1.38
2022-09-25T07:30:59.596Z,1.38
2022-09-25T07:33:27.115Z,1.00
2022-09-25T07:35:54.699Z,1.45
2022-09-25T07:38:22.763Z,0.80
2022-09-25T07:40:50.195Z,0.80
2022-09-25T07:43:17.561Z,1.00
2022-09-25T07:45:53.905Z,0.80
2022-09-25T07:48:21.982Z,0.80
2022-09-25T07:50:50.093Z,0.80
2022-09-25T07:53:18.941Z,0.90
2022-09-25T07:55:46.874Z,1.10
2022-09-25T07:58:15.235Z,1.00
2022-09-25T08:00:43.628Z,1.02
2022-09-25T08:39:18.269Z,0.73
2022-09-25T08:41:55.477Z,1.02
2022-09-25T08:44:26.154Z,1.20
2022-09-25T08:47:19.440Z,1.00
2022-09-25T08:49:58.261Z,1.10
2022-09-25T08:52:25.636Z,0.95
2022-09-25T08:54:53.094Z,0.68
2022-09-25T08:57:43.507Z,0.82
2022-09-25T09:00:21.285Z,0.80
2022-09-25T09:02:56.206Z,0.70
2022-09-25T09:05:38.633Z,0.88
2022-09-25T09:08:11.468Z,1.02
2022-09-25T09:10:42.487Z,0.98
2022-09-25T09:13:21.452Z,0.85
2022-09-25T09:16:15.793Z,0.80
2022-09-25T09:18:43.956Z,1.00
2022-09-25T09:21:19.226Z,0.73
2022-09-25T09:23:58.550Z,0.88
2022-09-25T09:26:50.131Z,1.30
2022-09-25T09:29:33.606Z,1.00
2022-09-25T09:32:18.464Z,0.68
2022-09-25T09:35:33.617Z,0.80
2022-09-25T09:38:16.619Z,1.02
2022-09-25T09:41:14.083Z,0.85
2022-09-25T09:44:02.441Z,0.80
2022-09-25T09:46:35.036Z,0.82
2022-09-25T09:49:09.285Z,0.73
2022-09-25T09:51:41.078Z,0.80
2022-09-25T09:54:17.906Z,1.15
2022-09-25T09:56:49.831Z,0.90
2022-09-25T09:59:22.650Z,0.90
2022-09-25T10:02:03.663Z,0.90
2022-09-25T10:04:36.456Z,0.80
2022-09-25T10:07:15.023Z,0.80
2022-09-25T10:09:42.969Z,0.80
2022-09-25T10:12:22.525Z,0.93
2022-09-25T10:14:49.843Z,0.70
2022-09-25T10:17:18.320Z,0.70
2022-09-25T10:19:55.703Z,1.10
2022-09-25T10:22:27.153Z,0.80
2022-09-25T10:25:02.107Z,0.63
2022-09-25T10:27:36.492Z,0.70
2022-09-25T10:30:06.554Z,0.93
2022-09-25T10:32:57.941Z,0.98
2022-09-25T10:35:38.515Z,0.77
2022-09-25T10:38:19.148Z,0.73
2022-09-25T10:40:57.072Z,0.60
2022-09-25T10:43:24.277Z,0.77
2022-09-25T10:46:09.799Z,1.00
2022-09-25T10:48:56.635Z,0.80
2022-09-25T10:51:24.440Z,0.90
2022-09-25T10:53:53.833Z,0.80
2022-09-25T10:56:27.315Z,0.80
2022-09-25T10:58:58.049Z,0.80
2022-09-25T11:01:40.083Z,1.05
2022-09-25T11:04:30.829Z,0.70
2022-09-25T11:07:04.918Z,0.95
2022-09-25T11:09:33.862Z,1.10
2022-09-25T11:12:13.652Z,0.80
2022-09-25T11:14:51.417Z,0.82
2022-09-25T11:17:37.886Z,0.88
2022-09-25T11:20:17.681Z,0.77
2022-09-25T11:22:50.138Z,0.70
2022-09-25T11:25:47.074Z,0.60
2022-09-25T11:28:40.681Z,0.68
2022-09-25T11:31:28.779Z,0.80
2022-09-25T11:34:32.714Z,0.90
2022-09-25T11:37:09.090Z,0.82
2022-09-25T11:40:06.951Z,0.63
2022-09-25T11:42:48.325Z,0.60
2022-09-25T11:45:22.020Z,0.80
2022-09-25T11:47:55.143Z,0.70
2022-09-25T11:50:32.225Z,0.85
2022-09-25T11:53:33.556Z,0.80
2022-09-25T11:56:25.524Z,0.68
2022-09-25T11:59:17.995Z,0.75
2022-09-25T12:01:57.988Z,1.10
2022-09-25T12:04:38.057Z,0.85
2022-09-25T12:07:40.681Z,0.82
2022-09-25T12:10:23.284Z,0.95
2022-09-25T12:12:59.462Z,0.80
2022-09-25T12:15:42.230Z,1.13
2022-09-25T12:18:34.427Z,0.77
2022-09-25T12:21:07.963Z,0.88
2022-09-25T12:23:56.219Z,1.00
2022-09-25T12:26:41.225Z,0.73
2022-09-25T12:32:14.151Z,0.77
2022-09-25T12:34:49.791Z,0.80
2022-09-25T12:37:43.772Z,0.60
2022-09-25T12:40:19.619Z,0.75
2022-09-25T12:43:04.787Z,1.00
2022-09-25T12:45:49.991Z,0.90
2022-09-25T12:48:31.062Z,0.75
2022-09-25T12:51:22.634Z,0.90
2022-09-25T12:53:50.930Z,0.70
2022-09-25T12:56:30.179Z,0.60
2022-09-25T12:59:11.305Z,0.60
2022-09-25T13:01:48.960Z,0.60
2022-09-25T13:04:40.468Z,0.70
2022-09-25T13:07:30.955Z,0.90
2022-09-25T13:09:57.992Z,0.50
2022-09-25T13:12:32.757Z,0.68
2022-09-25T13:15:10.469Z,0.40
2022-09-25T13:17:38.509Z,0.52
2022-09-25T13:20:26.825Z,0.60
2022-09-25T13:22:57.705Z,0.50
2022-09-25T13:25:25.600Z,0.68
2022-09-25T13:27:54.213Z,0.82
2022-09-25T13:30:28.028Z,0.60
2022-09-25T13:33:03.340Z,0.50
2022-09-25T13:35:33.908Z,0.55
2022-09-25T13:38:48.354Z,0.50
2022-09-25T13:41:15.770Z,0.50
2022-09-25T13:43:42.691Z,0.30
2022-09-25T13:46:21.685Z,0.50
2022-09-25T13:48:52.621Z,0.60
2022-09-25T13:51:22.573Z,0.40
2022-09-25T13:53:56.580Z,0.60
2022-09-25T13:56:26.571Z,0.40
2022-09-25T13:59:10.372Z,0.50
2022-09-25T14:01:39.360Z,0.50
2022-09-25T14:04:34.446Z,0.50
2022-09-25T14:07:13.117Z,0.55
2022-09-25T14:09:45.957Z,0.50
2022-09-25T14:12:45.929Z,0.57
2022-09-25T14:15:23.049Z,0.40
2022-09-25T14:17:52.982Z,0.45
2022-09-25T14:20:42.064Z,0.50
2022-09-25T14:23:20.724Z,0.52
2022-09-25T14:25:58.195Z,0.47
2022-09-25T14:28:28.484Z,0.40
2022-09-25T14:31:23.466Z,0.50
2022-09-25T14:34:15.471Z,0.50
2022-09-25T14:37:06.971Z,0.50
2022-09-25T14:39:45.813Z,7.35
2022-09-25T14:42:32.490Z,40.55
2022-09-25T14:45:06.447Z,127.05
2022-09-25T14:51:25.830Z,55.08
2022-09-25T14:54:01.588Z,23.58
2022-09-25T14:56:34.335Z,67.30
2022-09-25T14:59:19.924Z,43.83
2022-09-25T15:01:52.102Z,26.02
2022-09-25T15:04:28.139Z,13.45
2022-09-25T15:07:16.617Z,58.72
2022-09-25T15:09:48.465Z,71.88
2022-09-25T15:12:26.000Z,95.90
2022-09-25T15:14:58.760Z,60.28
2022-09-25T15:17:27.774Z,285.92
2022-09-25T15:19:57.545Z,522.22
2022-09-25T15:22:28.612Z,585.08
2022-09-25T15:24:59.194Z,680.95
2022-09-25T15:27:28.313Z,921.08
2022-09-25T15:29:56.559Z,678.63
2022-09-25T15:32:37.623Z,941.47
2022-09-25T15:35:17.415Z,999.90
2022-09-25T15:37:46.340Z,855.05
2022-09-25T15:40:26.001Z,852.53
2022-09-25T15:43:00.102Z,993.42
2022-09-25T15:45:32.949Z,999.90
2022-09-25T15:48:01.933Z,999.90
2022-09-25T15:50:30.176Z,950.58
2022-09-25T15:53:00.625Z,999.90
2022-09-25T15:55:31.608Z,909.47
2022-09-25T15:58:07.424Z,999.90
2022-09-25T16:00:53.193Z,999.90
2022-09-25T16:03:42.454Z,999.90
2022-09-25T16:06:18.602Z,876.35
2022-09-25T16:08:45.586Z,781.53
2022-09-25T16:11:26.168Z,999.90
2022-09-25T16:14:12.039Z,687.75
2022-09-25T16:16:47.087Z,922.03
2022-09-25T16:19:25.691Z,658.17
2022-09-25T16:21:53.726Z,528.25
2022-09-25T16:24:30.754Z,385.20
2022-09-25T16:27:02.684Z,999.90
2022-09-25T16:29:35.097Z,644.92
2022-09-25T16:32:08.085Z,982.28
2022-09-25T16:34:38.368Z,631.67
2022-09-25T16:37:08.462Z,136.15
2022-09-25T16:39:39.490Z,112.55
2022-09-25T16:42:26.088Z,31.38
2022-09-25T16:45:04.026Z,15.70
2022-09-25T16:47:31.138Z,14.90
2022-09-25T16:49:58.148Z,6.97
2022-09-25T16:52:34.853Z,4.20
2022-09-25T16:55:10.145Z,3.25
2022-09-25T16:57:41.338Z,2.15
2022-09-25T17:00:18.689Z,2.33
2022-09-25T17:02:47.525Z,2.20
2022-09-25T17:05:27.698Z,1.45
2022-09-25T17:08:00.403Z,1.15
2022-09-25T17:10:31.730Z,1.30
2022-09-25T17:13:01.691Z,1.40
2022-09-25T17:15:33.095Z,1.33
2022-09-25T17:18:02.121Z,1.75
2022-09-25T17:20:31.168Z,1.70
2022-09-25T17:23:00.173Z,1.02
2022-09-25T17:25:52.925Z,1.60
2022-09-25T17:28:19.819Z,1.42
2022-09-25T17:30:46.769Z,1.95
2022-09-25T17:33:19.035Z,2.03
2022-09-25T17:36:06.890Z,2.10
2022-09-25T17:38:34.432Z,1.42
2022-09-25T17:41:07.447Z,1.20
2022-09-25T17:43:34.466Z,1.08
2022-09-25T17:46:01.603Z,1.15
2022-09-25T17:48:31.888Z,1.40
2022-09-25T17:51:02.626Z,1.50
2022-09-25T17:53:33.782Z,1.75
2022-09-25T17:56:01.591Z,1.77
2022-09-25T17:58:30.162Z,1.40
2022-09-25T18:00:59.732Z,1.70
2022-09-25T18:03:28.334Z,3.95
2022-09-25T18:05:55.336Z,5.85
2022-09-25T18:08:22.382Z,5.25
2022-09-25T18:10:53.462Z,3.47
2022-09-25T18:13:41.346Z,2.05
2022-09-25T18:16:42.692Z,3.70
2022-09-25T18:23:35.286Z,2.83
2022-09-25T18:26:12.638Z,2.30
2022-09-25T18:41:29.630Z,1.05
2022-09-25T19:24:45.058Z,0.98
2022-09-25T19:51:59.094Z,0.80
2022-09-25T19:54:35.766Z,1.23
2022-09-25T20:38:25.213Z,0.90
2022-09-25T21:13:13.876Z,1.52
2022-09-25T21:15:44.478Z,1.70
2022-09-25T21:18:12.130Z,1.80
2022-09-25T21:20:39.183Z,1.35
2022-09-25T21:23:06.720Z,2.25
2022-09-25T21:25:34.206Z,1.75
2022-09-25T21:28:01.659Z,1.92
2022-09-25T21:30:28.822Z,2.45
2022-09-25T21:32:55.803Z,2.58
2022-09-25T21:35:22.671Z,2.30
2022-09-25T21:37:49.852Z,2.50
2022-09-25T21:40:16.809Z,2.70
2022-09-25T21:42:43.817Z,2.72
2022-09-25T21:45:11.030Z,2.72
2022-09-25T21:47:38.541Z,2.47
2022-09-25T21:50:09.311Z,2.90
2022-09-25T21:52:39.441Z,2.35
2022-09-25T21:55:07.084Z,2.63
2022-09-25T21:57:33.917Z,2.40
2022-09-25T22:00:01.252Z,2.80
2022-09-25T22:02:31.377Z,2.58
2022-09-25T22:04:58.298Z,2.70
2022-09-25T22:07:25.480Z,3.13
2022-09-25T22:09:52.544Z,2.60
2022-09-25T22:12:19.352Z,2.67
2022-09-25T22:14:46.434Z,2.50
2022-09-25T22:17:13.349Z,3.03
2022-09-25T22:19:40.743Z,2.50
2022-09-25T22:22:07.783Z,3.15
2022-09-25T22:24:34.800Z,2.58
2022-09-25T22:27:02.127Z,2.40
2022-09-25T22:29:30.028Z,2.45
2022-09-25T22:31:56.915Z,2.78
2022-09-25T22:34:29.075Z,2.50
2022-09-25T22:36:59.969Z,2.25
2022-09-25T22:39:28.690Z,2.67
2022-09-25T22:41:56.380Z,2.33
2022-09-25T22:44:23.902Z,2.33
2022-09-25T22:46:51.374Z,2.10
2022-09-25T22:49:18.339Z,2.13
2022-09-25T22:51:45.656Z,4.22
2022-09-25T22:54:15.083Z,2.60
2022-09-25T22:56:42.933Z,2.33
2022-09-25T22:59:13.565Z,2.00
2022-09-25T23:01:46.638Z,2.45
2022-09-25T23:04:24.166Z,2.17
2022-09-25T23:06:51.963Z,2.05
2022-09-25T23:09:25.964Z,2.15
2022-09-25T23:11:57.212Z,2.05
2022-09-25T23:14:28.335Z,1.90
2022-09-25T23:16:55.996Z,3.53
2022-09-25T23:19:24.094Z,2.13
2022-09-25T23:21:52.870Z,2.50
2022-09-25T23:24:21.073Z,2.35
2022-09-25T23:26:48.364Z,2.17
2022-09-25T23:29:18.187Z,1.80
2022-09-25T23:31:46.373Z,1.77
2022-09-25T23:34:14.281Z,2.25
2022-09-25T23:36:41.849Z,2.13
2022-09-25T23:39:14.216Z,1.80
2022-09-25T23:41:41.712Z,1.92
2022-09-25T23:44:10.850Z,2.67
2022-09-25T23:46:40.603Z,2.00
2022-09-25T23:49:07.946Z,1.98
2022-09-25T23:51:35.415Z,2.17
2022-09-25T23:54:02.682Z,2.05
2022-09-25T23:56:32.276Z,1.95
2022-09-25T23:59:01.400Z,2.00
